Hwy 5 at Elkhorn Atmospheric Data: 06/24/2022 Summary  Detailed Graphs  Station List

  Temperature     Wind Precipitation Visibility
Timestamp Air Wet
Bulb
Dew-
point
24-hr
Max
24-hr
Min
Relative
Humidity
Atmospheric
Pressure
Avg
Speed
Avg
Dir
Spot
Speed
Spot
Dir
Max
Speed
Max
Dir
  Rate Situation Start End 1 hr 3 hr 6 hr 12 hr 24 hr   Situation
Date Time °F °F °F °F °F % in Hg mph ° mph ° mph ° Y/N in/hr text Date Time Date Time in in in in in mi text
06/24/2022 12:00 AM 69.62 59.00 51.62 100.04 71.60 53.0 Not Reported 9.84 SE 9.40 SE 10.07 S No 0.000 No Precipitation     0.000 0.000 0.000 0.000 0.000 1.27 Clear
06/24/2022 12:15 AM 68.90 58.64 51.44 100.04 71.60 54.0 Not Reported 10.29 SE 7.61 SE 10.74 S No 0.000 No Precipitation     0.000 0.000 0.000 0.000 0.000 1.29 Clear
06/24/2022 12:30 AM 68.00 58.10 51.26 100.04 71.60 55.0 Not Reported 8.50 SE 9.17 SE 9.40 SE No 0.000 No Precipitation     0.000 0.000 0.000 0.000 0.000 1.30 Clear
06/24/2022 12:45 AM 66.92 57.56 51.08 100.04 71.60 57.0 Not Reported 9.17 SE 7.38 E 10.07 SE No 0.000 No Precipitation     0.000 0.000 0.000 0.000 0.000 1.31 Clear
06/24/2022 01:00 AM 66.92 57.38 50.72 100.04 71.60 56.0 Not Reported 8.28 SE 7.16 SE 10.74 SE No 0.000 No Precipitation     0.000 0.000 0.000 0.000 0.000 1.29 Clear
06/24/2022 01:15 AM 67.64 57.74 50.90 100.04 71.60 55.0 Not Reported 7.61 SE 7.38 SE 8.72 SE No 0.000 No Precipitation     0.000 0.000 0.000 0.000 0.000 1.32 Clear
06/24/2022 01:30 AM 66.74 57.56 50.90 100.04 71.60 57.0 Not Reported 8.72 SE 8.05 SE 10.29 SE No 0.000 No Precipitation     0.000 0.000 0.000 0.000 0.000 1.32 Clear
06/24/2022 01:45 AM 67.28 57.74 51.08 100.04 71.60 56.0 Not Reported 9.17 SE 10.07 SE 8.95 SE No 0.000 No Precipitation     0.000 0.000 0.000 0.000 0.000 1.31 Clear
06/24/2022 02:00 AM 66.56 57.38 50.72 100.04 71.60 57.0 Not Reported 8.95 SE 8.95 SE 9.84 SE No 0.000 No Precipitation     0.000 0.000 0.000 0.000 0.000 1.31 Clear
06/24/2022 02:15 AM 67.10 57.38 50.36 100.04 71.60 55.0 Not Reported 7.83 SE 7.61 E 9.40 SE No 0.000 No Precipitation     0.000 0.000 0.000 0.000 0.000 1.33 Clear
06/24/2022 02:30 AM 66.38 57.38 51.08 100.04 71.60 58.0 Not Reported 7.61 SE 6.93 SE 9.17 SE No 0.000 No Precipitation     0.000 0.000 0.000 0.000 0.000 1.32 Clear
06/24/2022 02:45 AM 66.20 57.02 50.54 100.04 71.60 57.0 Not Reported 8.28 SE 8.05 SE 8.28 SE No 0.000 No Precipitation     0.000 0.000 0.000 0.000 0.000 1.34 Clear
06/24/2022 03:00 AM 66.74 57.02 50.00 100.04 71.60 55.0 Not Reported 7.38 SE 7.16 SE 8.50 SE No 0.000 No Precipitation     0.000 0.000 0.000 0.000 0.000 1.28 Clear
06/24/2022 03:15 AM 66.02 56.84 50.36 100.04 71.60 57.0 Not Reported 6.93 SE 6.93 SE 7.38 SE No 0.000 No Precipitation     0.000 0.000 0.000 0.000 0.000 1.33 Clear
06/24/2022 03:30 AM 65.30 56.12 49.10 100.04 71.60 56.0 Not Reported 6.49 SE 6.26 SE 6.93 SE No 0.000 No Precipitation     0.000 0.000 0.000 0.000 0.000 1.29 Clear
06/24/2022 03:45 AM 65.66 56.66 50.00 100.04 71.60 57.0 Not Reported 6.26 S 6.93 SE 7.16 SE No 0.000 No Precipitation     0.000 0.000 0.000 0.000 0.000 1.31 Clear
06/24/2022 04:00 AM 64.22 55.94 50.00 100.04 71.60 60.0 Not Reported 8.50 SE 7.83 SE 8.28 SE No 0.000 No Precipitation     0.000 0.000 0.000 0.000 0.000 1.32 Clear
06/24/2022 04:15 AM 64.40 56.12 50.18 100.04 71.60 60.0 Not Reported 8.28 SE 8.28 SE 8.72 SE No 0.000 No Precipitation     0.000 0.000 0.000 0.000 0.000 1.30 Clear
06/24/2022 04:30 AM 64.04 56.30 50.72 100.04 71.60 62.0 Not Reported 6.04 SE 6.71 SE 8.28 SE No 0.000 No Precipitation     0.000 0.000 0.000 0.000 0.000 1.31 Clear
06/24/2022 04:45 AM 63.68 56.12 50.72 100.04 71.60 63.0 Not Reported 9.40 S 9.40 S 9.62 S No 0.000 No Precipitation     0.000 0.000 0.000 0.000 0.000 1.29 Clear
06/24/2022 05:00 AM 63.32 56.12 50.90 100.04 71.60 64.0 Not Reported 11.86 SE 12.75 S 12.53 S No 0.000 No Precipitation     0.000 0.000 0.000 0.000 0.000 1.26 Clear
06/24/2022 05:15 AM 63.32 56.12 50.90 100.04 71.60 64.0 Not Reported 9.84 S 9.17 S 12.75 S No 0.000 No Precipitation     0.000 0.000 0.000 0.000 0.000 1.25 Clear
06/24/2022 05:30 AM 62.60 55.94 51.08 100.04 71.60 66.0 Not Reported 8.28 S 8.72 SE 9.84 SE No 0.000 No Precipitation     0.000 0.000 0.000 0.000 0.000 1.26 Clear
06/24/2022 05:45 AM 62.42 55.76 50.90 100.04 71.60 66.0 Not Reported 7.16 SE 7.16 SE 9.40 SE No 0.000 No Precipitation     0.000 0.000 0.000 0.000 0.000 1.17 Clear
06/24/2022 06:00 AM 62.24 55.76 51.44 100.04 71.60 68.0 Not Reported 6.93 SE 7.16 SE 7.38 S No 0.000 No Precipitation     0.000 0.000 0.000 0.000 0.000 0.90 Clear
06/24/2022 06:15 AM 62.78 56.12 51.26 100.04 71.60 66.0 Not Reported 5.37 SE 6.04 SE 8.05 SE No 0.000 No Precipitation     0.000 0.000 0.000 0.000 0.000 1.16 Clear
06/24/2022 06:30 AM 63.68 56.48 51.26 100.04 71.60 64.0 Not Reported 5.82 SE 6.04 SE 6.04 SE No 0.000 No Precipitation     0.000 0.000 0.000 0.000 0.000 1.17 Clear
06/24/2022 06:45 AM 64.58 57.20 52.16 100.04 71.60 64.0 Not Reported 5.59 SE 6.26 SE 6.71 SE No 0.000 No Precipitation     0.000 0.000 0.000 0.000 0.000 0.89 Clear
06/24/2022 07:00 AM 65.84 57.92 52.34 100.04 71.60 62.0 Not Reported 6.71 S 7.38 SE 8.50 SE No 0.000 No Precipitation     0.000 0.000 0.000 0.000 0.000 1.21 Clear
06/24/2022 07:15 AM 66.02 58.46 53.42 100.04 71.60 64.0 Not Reported 6.04 S 7.16 SE 9.17 S No 0.000 No Precipitation     0.000 0.000 0.000 0.000 0.000 1.26 Clear
06/24/2022 07:30 AM 66.92 59.00 53.42 100.04 71.60 62.0 Not Reported 8.05 S 7.38 SE 9.62 S No 0.000 No Precipitation     0.000 0.000 0.000 0.000 0.000 1.26 Clear
06/24/2022 07:45 AM 67.82 59.54 54.32 100.04 71.60 62.0 Not Reported 8.05 S 7.83 S 9.40 S No 0.000 No Precipitation     0.000 0.000 0.000 0.000 0.000 1.27 Clear
06/24/2022 08:01 AM 68.90 60.26 54.86 100.04 71.60 61.0 Not Reported 5.59 S 6.71 S 7.61 SE No 0.000 No Precipitation     0.000 0.000 0.000 0.000 0.000 1.24 Clear
06/24/2022 08:15 AM 69.26 60.44 54.68 100.04 71.60 60.0 Not Reported 4.25 S 3.80 S 7.16 S No 0.000 No Precipitation     0.000 0.000 0.000 0.000 0.000 1.22 Clear
06/24/2022 08:30 AM 70.52 60.98 55.04 100.04 71.60 58.0 Not Reported 4.92 S 4.70 S 5.82 S No 0.000 No Precipitation     0.000 0.000 0.000 0.000 0.000 1.30 Clear
06/24/2022 08:45 AM 72.32 61.88 55.22 100.04 71.60 55.0 Not Reported 2.24 S 2.24 SE 6.49 S No 0.000 No Precipitation     0.000 0.000 0.000 0.000 0.000 1.16 Clear
06/24/2022 09:00 AM 73.76 62.24 55.04 100.04 71.60 52.0 Not Reported 2.68 SE 5.37 SE 4.92 S No 0.000 No Precipitation     0.000 0.000 0.000 0.000 0.000 1.11 Clear
06/24/2022 09:15 AM 75.38 62.60 54.86 100.04 71.60 49.0 Not Reported 4.70 S 4.25 E 5.37 SE No 0.000 No Precipitation     0.000 0.000 0.000 0.000 0.000 1.21 Clear
06/24/2022 09:30 AM 76.28 63.32 54.50 100.04 71.60 48.0 Not Reported 5.37 SE 1.79 E 6.93 E No 0.000 No Precipitation     0.000 0.000 0.000 0.000 0.000 1.13 Clear
06/24/2022 09:45 AM 78.44 65.12 57.56 100.04 71.60 49.0 Not Reported 2.91 SE 2.91 SE 6.49 SE No 0.000 No Precipitation     0.000 0.000 0.000 0.000 0.000 1.23 Clear
06/24/2022 10:00 AM 79.34 64.40 54.86 100.04 71.60 43.0 Not Reported 5.82 S 6.93 S 7.38 SE No 0.000 No Precipitation     0.000 0.000 0.000 0.000 0.000 1.20 Clear
06/24/2022 10:16 AM 81.50 65.84 57.02 100.04 71.60 42.0 Not Reported 4.25 SE 6.93 S 7.83 S No 0.000 No Precipitation     0.000 0.000 0.000 0.000 0.000 1.32 Clear
06/24/2022 10:30 AM 82.40 65.48 55.58 100.04 71.60 40.0 Not Reported 4.25 SE 4.70 S 7.83 S No 0.000 No Precipitation     0.000 0.000 0.000 0.000 0.000 1.34 Clear
06/24/2022 10:45 AM 82.40 65.84 55.58 100.04 71.60 40.0 Not Reported 4.47 S 4.92 S 7.16 S No 0.000 No Precipitation     0.000 0.000 0.000 0.000 0.000 1.27 Clear
06/24/2022 11:00 AM 82.40 66.56 57.74 100.04 71.60 43.0 Not Reported 3.58 W 1.79 N 5.82 SW No 0.000 No Precipitation     0.000 0.000 0.000 0.000 0.000 1.32 Clear
06/24/2022 11:15 AM 84.56 66.74 56.84 100.04 71.60 39.0 Not Reported 4.25 SW 4.70 W 5.59 W No 0.000 No Precipitation     0.000 0.000 0.000 0.000 0.000 1.25 Clear
06/24/2022 11:30 AM 86.54 66.92 55.58 100.04 71.60 35.0 Not Reported 3.36 W 3.58 SW 4.70 SW No 0.000 No Precipitation     0.000 0.000 0.000 0.000 0.000 1.26 Clear
06/24/2022 11:45 AM 87.62 66.56 54.14 100.04 71.60 32.0 Not Reported 4.70 S 5.14 S 6.04 S No 0.000 No Precipitation     0.000 0.000 0.000 0.000 0.000 1.36 Clear
06/24/2022 12:00 PM 89.42 67.82 55.58 100.04 71.60 32.0 Not Reported 2.24 W 0.00 SW 4.92 SW No 0.000 No Precipitation     0.000 0.000 0.000 0.000 0.000 1.20 Clear
06/24/2022 12:15 PM 89.96 67.82 54.32 100.04 71.60 30.0 Not Reported 3.80 S 3.13 SW 4.92 S No 0.000 No Precipitation     0.000 0.000 0.000 0.000 0.000 1.23 Clear
06/24/2022 12:30 PM 92.30 67.82 53.42 100.04 71.60 27.0 Not Reported 1.34 NW 5.59 SW 4.92 SW No 0.000 No Precipitation     0.000 0.000 0.000 0.000 0.000 1.25 Clear
06/24/2022 12:45 PM 93.38 67.64 52.34 100.04 71.60 25.0 Not Reported 2.91 W 2.68 S 5.59 SW No 0.000 No Precipitation     0.000 0.000 0.000 0.000 0.000 1.38 Clear
06/24/2022 01:15 PM 94.82 66.74 50.18 100.04 71.60 23.0 Not Reported 5.37 SE 3.13 SW 6.71 S No 0.000 No Precipitation     0.000 0.000 0.000 0.000 0.000 1.28 Clear
06/24/2022 01:30 PM 93.56 66.74 50.18 100.04 71.60 23.0 Not Reported 5.82 SW 3.13 W 5.59 SW No 0.000 No Precipitation     0.000 0.000 0.000 0.000 0.000 1.28 Clear
06/24/2022 01:45 PM 96.26 66.56 47.30 100.04 71.60 19.0 Not Reported 4.03 S 5.37 S 6.49 SW No 0.000 No Precipitation     0.000 0.000 0.000 0.000 0.000 1.26 Clear
06/24/2022 02:00 PM 96.08 66.38 46.94 100.04 71.60 19.0 Not Reported 6.04 S 3.80 S 5.14 SW No 0.000 No Precipitation     0.000 0.000 0.000 0.000 0.000 1.23 Clear
06/24/2022 02:15 PM 96.98 65.48 44.96 100.04 71.60 16.0 Not Reported 3.36 S 6.93 SW 6.71 S No 0.000 No Precipitation     0.000 0.000 0.000 0.000 0.000 1.37 Clear
06/24/2022 02:30 PM 96.44 65.12 42.80 100.04 71.60 16.0 Not Reported 8.95 S 7.61 S 10.07 SW No 0.000 No Precipitation     0.000 0.000 0.000 0.000 0.000 1.38 Clear
06/24/2022 02:45 PM 97.16 66.56 46.58 100.04 71.60 18.0 Not Reported 8.28 SW 6.93 SW 10.51 S No 0.000 No Precipitation     0.000 0.000 0.000 0.000 0.000 1.36 Clear
06/24/2022 03:00 PM 97.34 65.12 41.90 100.04 71.60 15.0 Not Reported 8.05 SW 11.86 S 11.86 SW No 0.000 No Precipitation     0.000 0.000 0.000 0.000 0.000 1.27 Clear
06/24/2022 03:15 PM 97.34 64.58 40.10 100.04 71.60 14.0 Not Reported 10.74 S 4.70 SE 12.30 S No 0.000 No Precipitation     0.000 0.000 0.000 0.000 0.000 1.42 Clear
06/24/2022 03:30 PM 98.60 66.92 46.22 100.04 71.60 17.0 Not Reported 8.28 S 6.49 S 12.75 S No 0.000 No Precipitation     0.000 0.000 0.000 0.000 0.000 1.35 Clear
06/24/2022 03:45 PM 97.52 64.22 38.30 100.04 71.60 13.0 Not Reported 10.51 S 9.17 S 13.65 S No 0.000 No Precipitation     0.000 0.000 0.000 0.000 0.000 1.34 Clear
06/24/2022 04:00 PM 97.88 64.94 40.64 100.04 71.60 14.0 Not Reported 7.38 S 12.30 S 13.87 S No 0.000 No Precipitation     0.000 0.000 0.000 0.000 0.000 1.41 Clear
06/24/2022 04:15 PM 97.70 64.22 38.48 100.04 71.60 13.0 Not Reported 10.74 S 8.95 S 12.30 S No 0.000 No Precipitation     0.000 0.000 0.000 0.000 0.000 1.33 Clear
06/24/2022 04:30 PM 98.06 65.66 42.44 100.04 71.60 15.0 Not Reported 7.38 S 7.61 S 12.75 SW No 0.000 No Precipitation     0.000 0.000 0.000 0.000 0.000 1.27 Clear
06/24/2022 04:45 PM 99.68 66.02 41.90 100.04 71.60 14.0 Not Reported 6.71 S 9.17 S 12.53 S No 0.000 No Precipitation     0.000 0.000 0.000 0.000 0.000 1.35 Clear
06/24/2022 05:00 PM 98.42 65.30 41.00 100.04 71.60 14.0 Not Reported 9.40 S 10.74 S 12.53 S No 0.000 No Precipitation     0.000 0.000 0.000 0.000 0.000 1.33 Clear
06/24/2022 05:15 PM 97.34 65.12 41.90 100.04 71.60 15.0 Not Reported 10.96 S 14.54 S 11.41 SW No 0.000 No Precipitation     0.000 0.000 0.000 0.000 0.000 1.41 Clear
06/24/2022 05:30 PM 97.70 65.30 42.26 100.04 71.60 15.0 Not Reported 9.40 S 8.05 S 14.76 S No 0.000 No Precipitation     0.000 0.000 0.000 0.000 0.000 1.40 Clear
06/24/2022 05:45 PM 96.80 65.30 43.16 100.04 71.60 16.0 Not Reported 9.17 S 9.17 S 11.86 S No 0.000 No Precipitation     0.000 0.000 0.000 0.000 0.000 1.36 Clear
06/24/2022 06:00 PM 96.98 65.48 43.34 100.04 71.60 16.0 Not Reported 10.96 S 10.51 S 11.63 S No 0.000 No Precipitation     0.000 0.000 0.000 0.000 0.000 1.39 Clear
06/24/2022 06:15 PM 96.44 65.12 42.80 100.04 71.60 16.0 Not Reported 9.40 S 10.96 S 13.20 S No 0.000 No Precipitation     0.000 0.000 0.000 0.000 0.000 1.36 Clear
06/24/2022 06:30 PM 95.90 64.22 40.82 99.68 62.24 15.0 Not Reported 10.07 S 8.95 S 12.30 S No 0.000 No Precipitation     0.000 0.000 0.000 0.000 0.000 1.43 Clear
06/24/2022 06:45 PM 95.36 64.94 43.52 99.68 62.24 17.0 Not Reported 9.40 S 9.17 S 11.18 S No 0.000 No Precipitation     0.000 0.000 0.000 0.000 0.000 1.38 Clear
06/24/2022 07:00 PM 94.82 65.12 44.60 99.68 62.24 18.0 Not Reported 9.17 S 10.29 S 10.74 S No 0.000 No Precipitation     0.000 0.000 0.000 0.000 0.000 1.40 Clear
06/24/2022 07:15 PM 93.74 66.02 47.84 99.68 62.24 21.0 Not Reported 9.17 S 6.93 SE 10.51 S No 0.000 No Precipitation     0.000 0.000 0.000 0.000 0.000 1.33 Clear
06/24/2022 07:30 PM 92.30 66.92 51.26 99.68 62.24 25.0 Not Reported 7.38 S 8.28 S 8.50 S No 0.000 No Precipitation     0.000 0.000 0.000 0.000 0.000 1.39 Clear
06/24/2022 07:45 PM 90.32 67.28 53.78 99.68 62.24 29.0 Not Reported 7.83 SE 6.71 SE 9.40 S No 0.000 No Precipitation     0.000 0.000 0.000 0.000 0.000 1.33 Clear
06/24/2022 08:00 PM 87.44 67.82 57.20 99.68 62.24 36.0 Not Reported 8.72 S 10.51 SE 10.29 SE No 0.000 No Precipitation     0.000 0.000 0.000 0.000 0.000 1.22 Clear
06/24/2022 08:15 PM 84.02 67.10 57.74 99.68 62.24 41.0 Not Reported 9.40 SE 8.28 S 11.86 SE No 0.000 No Precipitation     0.000 0.000 0.000 0.000 0.000 1.21 Clear
06/24/2022 08:30 PM 81.68 65.84 57.02 99.68 62.24 43.0 Not Reported 9.62 SE 10.07 SE 13.20 SE No 0.000 No Precipitation     0.000 0.000 0.000 0.000 0.000 1.20 Clear
06/24/2022 08:45 PM 81.14 65.48 56.48 99.68 62.24 43.0 Not Reported 12.75 SE 11.86 SE 13.42 SE No 0.000 No Precipitation     0.000 0.000 0.000 0.000 0.000 1.20 Clear
06/24/2022 09:00 PM 79.88 65.12 56.66 99.68 62.24 45.0 Not Reported 12.08 SE 12.08 SE 12.97 SE No 0.000 No Precipitation     0.000 0.000 0.000 0.000 0.000 1.19 Clear
06/24/2022 09:15 PM 78.62 64.76 56.66 99.68 62.24 47.0 Not Reported 10.96 SE 7.83 SE 13.20 SE No 0.000 No Precipitation     0.000 0.000 0.000 0.000 0.000 1.20 Clear
06/24/2022 09:30 PM 77.00 64.04 56.30 99.68 62.24 49.0 Not Reported 8.50 SE 9.84 SE 11.86 SE No 0.000 No Precipitation     0.000 0.000 0.000 0.000 0.000 1.19 Clear
06/24/2022 09:45 PM 76.10 63.32 55.58 99.68 62.24 49.0 Not Reported 9.62 SE 7.16 SE 11.86 SE No 0.000 No Precipitation     0.000 0.000 0.000 0.000 0.000 1.20 Clear
06/24/2022 10:00 PM 75.20 62.78 55.22 99.68 62.24 50.0 Not Reported 10.07 SE 10.96 SE 11.86 SE No 0.000 No Precipitation     0.000 0.000 0.000 0.000 0.000 1.20 Clear
06/24/2022 10:15 PM 73.94 62.24 55.22 99.68 62.24 52.0 Not Reported 12.08 SE 12.75 S 11.63 S No 0.000 No Precipitation     0.000 0.000 0.000 0.000 0.000 1.22 Clear
06/24/2022 10:30 PM 72.14 61.16 53.96 99.68 62.24 53.0 Not Reported 14.76 SE 14.99 SE 15.66 SE No 0.000 No Precipitation     0.000 0.000 0.000 0.000 0.000 1.20 Clear
06/24/2022 10:45 PM 71.06 60.44 53.60 99.68 62.24 54.0 Not Reported 11.41 SE 10.96 SE 16.11 SE No 0.000 No Precipitation     0.000 0.000 0.000 0.000 0.000 1.21 Clear
06/24/2022 11:00 PM 69.08 59.18 52.70 99.68 62.24 56.0 Not Reported 9.40 SE 9.84 SE 12.75 SE No 0.000 No Precipitation     0.000 0.000 0.000 0.000 0.000 1.23 Clear
06/24/2022 11:15 PM 68.90 58.64 51.44 99.68 62.24 54.0 Not Reported 11.63 SE 10.96 SE 12.53 SE No 0.000 No Precipitation     0.000 0.000 0.000 0.000 0.000 1.24 Clear
06/24/2022 11:30 PM 67.82 58.28 51.44 99.68 62.24 56.0 Not Reported 11.86 SE 11.18 SE 12.53 SE No 0.000 No Precipitation     0.000 0.000 0.000 0.000 0.000 1.21 Clear
06/24/2022 11:45 PM 66.92 57.56 51.08 99.68 62.24 57.0 Not Reported 12.53 SE 12.75 SE 13.42 SE No 0.000 No Precipitation     0.000 0.000 0.000 0.000 0.000 1.20 Clear